sensor_id;sensor_type;location;lat;lon;timestamp;P1;durP1;ratioP1;P2;durP2;ratioP2
52796;SDS011;38666;43.348;12.584;2022-10-16T06:55:31;24.33;;;9.73;;
52796;SDS011;38666;43.348;12.584;2022-10-16T06:57:56;16.15;;;8.13;;
52796;SDS011;38666;43.348;12.584;2022-10-16T07:00:21;18.33;;;8.60;;
52796;SDS011;38666;43.348;12.584;2022-10-16T07:02:47;18.83;;;7.90;;
52796;SDS011;38666;43.348;12.584;2022-10-16T07:05:12;15.37;;;7.33;;
52796;SDS011;38666;43.348;12.584;2022-10-16T07:07:38;11.02;;;6.18;;
52796;SDS011;38666;43.348;12.584;2022-10-16T07:10:03;10.80;;;5.80;;
52796;SDS011;38666;43.348;12.584;2022-10-16T07:12:29;16.63;;;6.45;;
52796;SDS011;38666;43.348;12.584;2022-10-16T07:14:54;14.27;;;5.90;;
52796;SDS011;38666;43.348;12.584;2022-10-16T07:17:21;15.55;;;5.13;;
52796;SDS011;38666;43.348;12.584;2022-10-16T07:19:46;18.37;;;6.13;;
52796;SDS011;38666;43.348;12.584;2022-10-16T07:22:12;15.77;;;5.90;;
52796;SDS011;38666;43.348;12.584;2022-10-16T07:24:37;16.67;;;5.20;;
52796;SDS011;38666;43.348;12.584;2022-10-16T07:27:02;13.85;;;5.90;;
52796;SDS011;38666;43.348;12.584;2022-10-16T07:29:28;11.40;;;5.40;;
52796;SDS011;38666;43.348;12.584;2022-10-16T07:31:53;10.40;;;5.30;;
52796;SDS011;38666;43.348;12.584;2022-10-16T07:34:19;16.40;;;6.20;;
52796;SDS011;38666;43.348;12.584;2022-10-16T07:36:50;20.63;;;6.15;;
52796;SDS011;38666;43.348;12.584;2022-10-16T07:39:15;15.75;;;5.95;;
52796;SDS011;38666;43.348;12.584;2022-10-16T07:41:41;17.38;;;5.70;;
52796;SDS011;38666;43.348;12.584;2022-10-16T07:44:07;13.40;;;5.20;;
52796;SDS011;38666;43.348;12.584;2022-10-16T07:46:32;18.53;;;5.07;;
52796;SDS011;38666;43.348;12.584;2022-10-16T07:48:59;13.68;;;4.78;;
52796;SDS011;38666;43.348;12.584;2022-10-16T07:51:25;11.70;;;5.10;;
52796;SDS011;38666;43.348;12.584;2022-10-16T07:53:51;15.05;;;5.05;;
52796;SDS011;38666;43.348;12.584;2022-10-16T07:56:18;17.13;;;5.25;;
52796;SDS011;38666;43.348;12.584;2022-10-16T07:58:44;17.75;;;5.35;;
52796;SDS011;38666;43.348;12.584;2022-10-16T08:01:14;13.25;;;4.68;;
52796;SDS011;38666;43.348;12.584;2022-10-16T08:03:47;14.40;;;4.97;;
52796;SDS011;38666;43.348;12.584;2022-10-16T08:06:15;11.50;;;4.65;;
52796;SDS011;38666;43.348;12.584;2022-10-16T08:08:41;11.48;;;4.50;;
52796;SDS011;38666;43.348;12.584;2022-10-16T08:11:06;14.20;;;4.70;;
52796;SDS011;38666;43.348;12.584;2022-10-16T08:13:32;10.90;;;4.57;;
52796;SDS011;38666;43.348;12.584;2022-10-16T08:15:57;11.30;;;4.73;;
52796;SDS011;38666;43.348;12.584;2022-10-16T08:18:23;12.83;;;4.27;;
52796;SDS011;38666;43.348;12.584;2022-10-16T08:20:54;9.60;;;4.30;;
52796;SDS011;38666;43.348;12.584;2022-10-16T08:23:21;15.05;;;4.18;;
52796;SDS011;38666;43.348;12.584;2022-10-16T08:25:46;11.85;;;3.95;;
52796;SDS011;38666;43.348;12.584;2022-10-16T08:28:11;8.30;;;3.80;;
52796;SDS011;38666;43.348;12.584;2022-10-16T08:30:37;10.70;;;4.20;;
52796;SDS011;38666;43.348;12.584;2022-10-16T08:33:03;9.80;;;4.03;;
52796;SDS011;38666;43.348;12.584;2022-10-16T08:35:29;10.63;;;3.60;;
52796;SDS011;38666;43.348;12.584;2022-10-16T08:37:54;14.57;;;3.77;;
52796;SDS011;38666;43.348;12.584;2022-10-16T08:40:20;9.13;;;3.80;;
52796;SDS011;38666;43.348;12.584;2022-10-16T08:48:54;9.98;;;3.30;;
52796;SDS011;38666;43.348;12.584;2022-10-16T08:51:23;12.88;;;3.85;;
52796;SDS011;38666;43.348;12.584;2022-10-16T08:53:55;8.43;;;3.10;;
52796;SDS011;38666;43.348;12.584;2022-10-16T08:56:37;10.32;;;4.03;;
52796;SDS011;38666;43.348;12.584;2022-10-16T08:59:03;10.93;;;3.67;;
52796;SDS011;38666;43.348;12.584;2022-10-16T09:01:41;7.72;;;2.88;;
52796;SDS011;38666;43.348;12.584;2022-10-16T09:07:22;8.60;;;2.77;;
52796;SDS011;38666;43.348;12.584;2022-10-16T09:10:10;15.60;;;3.22;;
52796;SDS011;38666;43.348;12.584;2022-10-16T09:12:39;7.57;;;2.78;;
52796;SDS011;38666;43.348;12.584;2022-10-16T09:18:25;8.03;;;2.70;;
52796;SDS011;38666;43.348;12.584;2022-10-16T09:21:09;9.30;;;2.60;;
52796;SDS011;38666;43.348;12.584;2022-10-16T09:23:38;8.15;;;2.60;;
52796;SDS011;38666;43.348;12.584;2022-10-16T09:26:04;8.33;;;2.40;;
52796;SDS011;38666;43.348;12.584;2022-10-16T09:28:34;11.13;;;2.53;;
52796;SDS011;38666;43.348;12.584;2022-10-16T09:31:00;9.13;;;2.70;;
52796;SDS011;38666;43.348;12.584;2022-10-16T09:33:32;8.95;;;2.50;;
52796;SDS011;38666;43.348;12.584;2022-10-16T09:36:02;10.93;;;2.53;;
52796;SDS011;38666;43.348;12.584;2022-10-16T09:38:33;5.10;;;1.92;;
52796;SDS011;38666;43.348;12.584;2022-10-16T09:41:02;6.03;;;2.10;;
52796;SDS011;38666;43.348;12.584;2022-10-16T09:48:53;10.27;;;1.77;;
52796;SDS011;38666;43.348;12.584;2022-10-16T09:54:01;3.93;;;1.53;;
52796;SDS011;38666;43.348;12.584;2022-10-16T09:56:39;5.15;;;1.48;;
52796;SDS011;38666;43.348;12.584;2022-10-16T09:59:12;9.35;;;1.67;;
52796;SDS011;38666;43.348;12.584;2022-10-16T10:01:44;5.78;;;1.80;;
52796;SDS011;38666;43.348;12.584;2022-10-16T10:04:12;7.80;;;1.90;;
52796;SDS011;38666;43.348;12.584;2022-10-16T10:06:44;6.10;;;1.80;;
52796;SDS011;38666;43.348;12.584;2022-10-16T10:09:16;6.25;;;2.17;;
52796;SDS011;38666;43.348;12.584;2022-10-16T10:12:01;5.97;;;1.60;;
52796;SDS011;38666;43.348;12.584;2022-10-16T10:14:35;9.43;;;1.60;;
52796;SDS011;38666;43.348;12.584;2022-10-16T10:19:42;7.47;;;1.88;;
52796;SDS011;38666;43.348;12.584;2022-10-16T10:24:56;5.13;;;1.40;;
52796;SDS011;38666;43.348;12.584;2022-10-16T10:27:24;9.20;;;1.50;;
52796;SDS011;38666;43.348;12.584;2022-10-16T10:38:20;5.43;;;1.70;;
52796;SDS011;38666;43.348;12.584;2022-10-16T10:46:50;5.82;;;1.63;;
52796;SDS011;38666;43.348;12.584;2022-10-16T10:49:25;5.88;;;1.70;;
52796;SDS011;38666;43.348;12.584;2022-10-16T11:05:52;5.73;;;1.50;;
52796;SDS011;38666;43.348;12.584;2022-10-16T11:08:22;9.87;;;1.50;;
52796;SDS011;38666;43.348;12.584;2022-10-16T11:10:54;4.28;;;1.50;;
52796;SDS011;38666;43.348;12.584;2022-10-16T11:16:20;5.00;;;1.55;;
52796;SDS011;38666;43.348;12.584;2022-10-16T11:18:52;6.13;;;1.60;;
52796;SDS011;38666;43.348;12.584;2022-10-16T11:21:24;7.82;;;1.77;;
52796;SDS011;38666;43.348;12.584;2022-10-16T11:23:59;3.90;;;1.42;;
52796;SDS011;38666;43.348;12.584;2022-10-16T11:26:29;3.20;;;1.30;;
52796;SDS011;38666;43.348;12.584;2022-10-16T11:28:59;6.23;;;1.50;;
52796;SDS011;38666;43.348;12.584;2022-10-16T11:34:10;6.33;;;1.70;;
52796;SDS011;38666;43.348;12.584;2022-10-16T11:39:24;5.10;;;1.50;;
52796;SDS011;38666;43.348;12.584;2022-10-16T11:41:53;5.93;;;1.77;;
52796;SDS011;38666;43.348;12.584;2022-10-16T11:50:01;5.38;;;1.52;;
52796;SDS011;38666;43.348;12.584;2022-10-16T11:52:55;6.05;;;1.38;;
52796;SDS011;38666;43.348;12.584;2022-10-16T11:55:42;5.38;;;1.75;;
52796;SDS011;38666;43.348;12.584;2022-10-16T11:58:15;7.20;;;1.47;;
52796;SDS011;38666;43.348;12.584;2022-10-16T12:09:26;3.97;;;1.33;;
52796;SDS011;38666;43.348;12.584;2022-10-16T12:11:54;6.40;;;1.35;;
52796;SDS011;38666;43.348;12.584;2022-10-16T12:14:34;5.70;;;1.40;;
52796;SDS011;38666;43.348;12.584;2022-10-16T12:17:03;3.83;;;1.20;;
52796;SDS011;38666;43.348;12.584;2022-10-16T12:19:58;7.95;;;1.70;;
52796;SDS011;38666;43.348;12.584;2022-10-16T12:22:27;4.53;;;1.63;;
52796;SDS011;38666;43.348;12.584;2022-10-16T12:24:55;4.63;;;1.42;;
52796;SDS011;38666;43.348;12.584;2022-10-16T12:27:30;5.75;;;1.50;;
52796;SDS011;38666;43.348;12.584;2022-10-16T12:30:01;4.80;;;1.67;;
52796;SDS011;38666;43.348;12.584;2022-10-16T12:32:34;6.60;;;1.58;;
52796;SDS011;38666;43.348;12.584;2022-10-16T12:35:04;7.60;;;1.90;;
52796;SDS011;38666;43.348;12.584;2022-10-16T12:37:33;12.60;;;1.80;;
52796;SDS011;38666;43.348;12.584;2022-10-16T12:40:11;5.18;;;1.70;;
52796;SDS011;38666;43.348;12.584;2022-10-16T12:42:38;6.00;;;1.60;;
52796;SDS011;38666;43.348;12.584;2022-10-16T12:47:56;7.22;;;1.70;;
52796;SDS011;38666;43.348;12.584;2022-10-16T12:50:30;5.57;;;1.77;;
52796;SDS011;38666;43.348;12.584;2022-10-16T12:53:01;5.15;;;1.52;;
52796;SDS011;38666;43.348;12.584;2022-10-16T12:55:32;8.80;;;1.77;;
52796;SDS011;38666;43.348;12.584;2022-10-16T13:00:45;4.57;;;1.30;;
52796;SDS011;38666;43.348;12.584;2022-10-16T13:07:17;4.63;;;1.30;;
52796;SDS011;38666;43.348;12.584;2022-10-16T13:14:37;3.80;;;1.25;;
52796;SDS011;38666;43.348;12.584;2022-10-16T13:17:32;2.78;;;1.13;;
52796;SDS011;38666;43.348;12.584;2022-10-16T13:20:04;8.40;;;1.77;;
52796;SDS011;38666;43.348;12.584;2022-10-16T13:28:22;3.35;;;1.20;;
52796;SDS011;38666;43.348;12.584;2022-10-16T13:30:53;3.08;;;1.30;;
52796;SDS011;38666;43.348;12.584;2022-10-16T13:33:35;4.73;;;1.50;;
52796;SDS011;38666;43.348;12.584;2022-10-16T13:36:03;3.53;;;1.27;;
52796;SDS011;38666;43.348;12.584;2022-10-16T13:38:35;11.77;;;1.40;;
52796;SDS011;38666;43.348;12.584;2022-10-16T13:43:38;9.68;;;1.30;;
52796;SDS011;38666;43.348;12.584;2022-10-16T13:46:14;2.50;;;1.00;;
52796;SDS011;38666;43.348;12.584;2022-10-16T13:48:41;3.10;;;1.20;;
52796;SDS011;38666;43.348;12.584;2022-10-16T13:51:14;5.97;;;1.50;;
52796;SDS011;38666;43.348;12.584;2022-10-16T13:53:41;5.47;;;1.40;;
52796;SDS011;38666;43.348;12.584;2022-10-16T13:56:10;3.17;;;1.00;;
52796;SDS011;38666;43.348;12.584;2022-10-16T13:58:37;3.88;;;1.58;;
52796;SDS011;38666;43.348;12.584;2022-10-16T14:01:03;3.78;;;1.23;;
52796;SDS011;38666;43.348;12.584;2022-10-16T14:03:30;7.10;;;1.40;;
52796;SDS011;38666;43.348;12.584;2022-10-16T14:06:02;6.30;;;1.30;;
52796;SDS011;38666;43.348;12.584;2022-10-16T14:08:35;3.20;;;1.00;;
52796;SDS011;38666;43.348;12.584;2022-10-16T14:11:01;4.40;;;1.10;;
52796;SDS011;38666;43.348;12.584;2022-10-16T14:16:06;5.32;;;1.55;;
52796;SDS011;38666;43.348;12.584;2022-10-16T14:18:34;6.20;;;1.20;;
52796;SDS011;38666;43.348;12.584;2022-10-16T14:21:05;4.13;;;1.35;;
52796;SDS011;38666;43.348;12.584;2022-10-16T14:23:33;2.97;;;1.25;;
52796;SDS011;38666;43.348;12.584;2022-10-16T14:28:34;2.92;;;1.10;;
52796;SDS011;38666;43.348;12.584;2022-10-16T14:31:01;4.63;;;1.25;;
52796;SDS011;38666;43.348;12.584;2022-10-16T14:38:39;5.53;;;1.30;;
52796;SDS011;38666;43.348;12.584;2022-10-16T14:41:06;9.25;;;1.50;;
52796;SDS011;38666;43.348;12.584;2022-10-16T14:43:39;3.22;;;1.33;;
52796;SDS011;38666;43.348;12.584;2022-10-16T14:46:12;4.60;;;1.33;;
52796;SDS011;38666;43.348;12.584;2022-10-16T14:48:42;6.63;;;1.48;;
52796;SDS011;38666;43.348;12.584;2022-10-16T14:51:14;10.35;;;1.75;;
52796;SDS011;38666;43.348;12.584;2022-10-16T14:53:40;4.47;;;1.58;;
52796;SDS011;38666;43.348;12.584;2022-10-16T14:56:07;6.13;;;1.60;;
52796;SDS011;38666;43.348;12.584;2022-10-16T14:58:34;6.10;;;2.03;;
52796;SDS011;38666;43.348;12.584;2022-10-16T15:01:00;5.72;;;1.80;;
52796;SDS011;38666;43.348;12.584;2022-10-16T15:03:25;7.13;;;1.63;;
52796;SDS011;38666;43.348;12.584;2022-10-16T15:05:51;4.97;;;1.92;;
52796;SDS011;38666;43.348;12.584;2022-10-16T15:08:16;8.63;;;2.80;;
52796;SDS011;38666;43.348;12.584;2022-10-16T15:10:42;9.05;;;2.90;;
52796;SDS011;38666;43.348;12.584;2022-10-16T15:13:12;8.73;;;3.08;;
52796;SDS011;38666;43.348;12.584;2022-10-16T15:15:42;9.40;;;3.10;;
52796;SDS011;38666;43.348;12.584;2022-10-16T15:18:09;12.57;;;3.63;;
52796;SDS011;38666;43.348;12.584;2022-10-16T15:20:35;8.43;;;2.88;;
52796;SDS011;38666;43.348;12.584;2022-10-16T15:23:03;12.13;;;2.83;;
52796;SDS011;38666;43.348;12.584;2022-10-16T15:25:33;21.17;;;4.50;;
52796;SDS011;38666;43.348;12.584;2022-10-16T15:28:06;8.23;;;3.08;;
52796;SDS011;38666;43.348;12.584;2022-10-16T15:30:33;9.60;;;2.90;;
52796;SDS011;38666;43.348;12.584;2022-10-16T15:32:59;7.97;;;2.42;;
52796;SDS011;38666;43.348;12.584;2022-10-16T15:35:25;8.83;;;3.40;;
52796;SDS011;38666;43.348;12.584;2022-10-16T15:37:50;10.20;;;3.07;;
52796;SDS011;38666;43.348;12.584;2022-10-16T15:40:17;8.47;;;3.33;;
52796;SDS011;38666;43.348;12.584;2022-10-16T15:42:43;11.10;;;3.53;;
52796;SDS011;38666;43.348;12.584;2022-10-16T15:45:09;16.13;;;3.97;;
52796;SDS011;38666;43.348;12.584;2022-10-16T15:47:36;12.40;;;3.13;;
52796;SDS011;38666;43.348;12.584;2022-10-16T15:50:02;9.40;;;4.97;;
52796;SDS011;38666;43.348;12.584;2022-10-16T15:52:28;9.90;;;4.30;;
52796;SDS011;38666;43.348;12.584;2022-10-16T15:54:54;5.97;;;2.60;;
52796;SDS011;38666;43.348;12.584;2022-10-16T15:57:20;5.83;;;2.47;;
52796;SDS011;38666;43.348;12.584;2022-10-16T15:59:45;10.33;;;2.67;;
52796;SDS011;38666;43.348;12.584;2022-10-16T16:02:10;5.80;;;2.47;;
52796;SDS011;38666;43.348;12.584;2022-10-16T16:04:36;7.75;;;2.10;;
52796;SDS011;38666;43.348;12.584;2022-10-16T16:07:02;12.73;;;2.50;;
52796;SDS011;38666;43.348;12.584;2022-10-16T16:09:30;6.37;;;2.40;;
52796;SDS011;38666;43.348;12.584;2022-10-16T16:11:56;5.65;;;2.30;;
52796;SDS011;38666;43.348;12.584;2022-10-16T16:14:23;7.57;;;2.13;;
52796;SDS011;38666;43.348;12.584;2022-10-16T16:16:49;8.20;;;2.22;;
52796;SDS011;38666;43.348;12.584;2022-10-16T16:19:14;6.90;;;2.17;;
52796;SDS011;38666;43.348;12.584;2022-10-16T16:21:41;6.85;;;2.05;;
52796;SDS011;38666;43.348;12.584;2022-10-16T16:24:07;8.30;;;2.13;;
52796;SDS011;38666;43.348;12.584;2022-10-16T16:26:33;7.47;;;2.13;;
52796;SDS011;38666;43.348;12.584;2022-10-16T16:29:01;7.40;;;2.20;;
52796;SDS011;38666;43.348;12.584;2022-10-16T16:31:29;5.15;;;1.98;;
52796;SDS011;38666;43.348;12.584;2022-10-16T16:33:55;7.78;;;2.83;;
52796;SDS011;38666;43.348;12.584;2022-10-16T16:36:22;6.95;;;2.55;;
52796;SDS011;38666;43.348;12.584;2022-10-16T16:38:48;9.55;;;2.58;;
52796;SDS011;38666;43.348;12.584;2022-10-16T16:41:18;6.95;;;2.42;;
52796;SDS011;38666;43.348;12.584;2022-10-16T16:43:48;7.57;;;2.57;;
52796;SDS011;38666;43.348;12.584;2022-10-16T16:46:16;8.30;;;2.58;;
52796;SDS011;38666;43.348;12.584;2022-10-16T16:48:42;12.50;;;2.80;;
52796;SDS011;38666;43.348;12.584;2022-10-16T16:51:08;9.07;;;2.60;;
52796;SDS011;38666;43.348;12.584;2022-10-16T16:53:45;10.57;;;2.47;;
52796;SDS011;38666;43.348;12.584;2022-10-16T16:56:12;10.63;;;2.50;;
52796;SDS011;38666;43.348;12.584;2022-10-16T16:58:38;10.00;;;2.20;;
52796;SDS011;38666;43.348;12.584;2022-10-16T17:01:04;6.18;;;2.40;;
52796;SDS011;38666;43.348;12.584;2022-10-16T17:03:31;7.70;;;2.67;;
52796;SDS011;38666;43.348;12.584;2022-10-16T17:05:59;6.32;;;2.42;;
52796;SDS011;38666;43.348;12.584;2022-10-16T17:08:26;7.47;;;2.30;;
52796;SDS011;38666;43.348;12.584;2022-10-16T17:10:53;9.15;;;2.70;;
52796;SDS011;38666;43.348;12.584;2022-10-16T17:13:24;12.13;;;2.50;;
52796;SDS011;38666;43.348;12.584;2022-10-16T17:15:51;9.82;;;2.38;;
52796;SDS011;38666;43.348;12.584;2022-10-16T17:18:17;7.90;;;2.33;;
52796;SDS011;38666;43.348;12.584;2022-10-16T17:20:44;9.95;;;2.60;;
52796;SDS011;38666;43.348;12.584;2022-10-16T17:23:09;8.20;;;2.80;;
52796;SDS011;38666;43.348;12.584;2022-10-16T17:25:36;7.07;;;2.30;;
52796;SDS011;38666;43.348;12.584;2022-10-16T17:28:02;6.55;;;2.67;;
52796;SDS011;38666;43.348;12.584;2022-10-16T17:30:28;7.72;;;2.47;;
52796;SDS011;38666;43.348;12.584;2022-10-16T17:32:53;8.23;;;2.77;;
52796;SDS011;38666;43.348;12.584;2022-10-16T17:35:19;6.60;;;2.45;;
52796;SDS011;38666;43.348;12.584;2022-10-16T17:37:44;6.95;;;2.97;;
52796;SDS011;38666;43.348;12.584;2022-10-16T17:40:10;6.77;;;2.70;;
52796;SDS011;38666;43.348;12.584;2022-10-16T17:42:36;10.98;;;2.58;;
52796;SDS011;38666;43.348;12.584;2022-10-16T17:45:01;7.25;;;2.78;;
52796;SDS011;38666;43.348;12.584;2022-10-16T17:47:27;5.13;;;2.50;;
52796;SDS011;38666;43.348;12.584;2022-10-16T17:49:53;9.80;;;2.97;;
52796;SDS011;38666;43.348;12.584;2022-10-16T17:52:19;10.88;;;2.95;;
52796;SDS011;38666;43.348;12.584;2022-10-16T17:54:44;8.20;;;2.80;;
52796;SDS011;38666;43.348;12.584;2022-10-16T17:57:10;11.57;;;2.83;;
52796;SDS011;38666;43.348;12.584;2022-10-16T17:59:35;7.40;;;2.77;;
52796;SDS011;38666;43.348;12.584;2022-10-16T18:02:01;11.77;;;2.88;;
52796;SDS011;38666;43.348;12.584;2022-10-16T18:04:27;7.40;;;2.72;;
52796;SDS011;38666;43.348;12.584;2022-10-16T18:06:52;5.97;;;2.30;;
52796;SDS011;38666;43.348;12.584;2022-10-16T18:09:20;8.43;;;2.55;;
52796;SDS011;38666;43.348;12.584;2022-10-16T18:11:46;7.85;;;2.90;;
52796;SDS011;38666;43.348;12.584;2022-10-16T18:14:13;9.80;;;3.13;;
52796;SDS011;38666;43.348;12.584;2022-10-16T18:16:40;10.20;;;2.53;;
52796;SDS011;38666;43.348;12.584;2022-10-16T18:19:06;8.10;;;2.40;;
52796;SDS011;38666;43.348;12.584;2022-10-16T18:21:33;7.85;;;2.30;;
52796;SDS011;38666;43.348;12.584;2022-10-16T18:23:59;11.60;;;2.93;;
52796;SDS011;38666;43.348;12.584;2022-10-16T18:26:25;6.57;;;2.47;;
52796;SDS011;38666;43.348;12.584;2022-10-16T18:28:51;5.65;;;2.10;;
52796;SDS011;38666;43.348;12.584;2022-10-16T18:31:18;10.90;;;2.77;;
52796;SDS011;38666;43.348;12.584;2022-10-16T18:33:45;13.60;;;6.50;;
52796;SDS011;38666;43.348;12.584;2022-10-16T18:36:15;16.73;;;6.65;;
52796;SDS011;38666;43.348;12.584;2022-10-16T18:38:42;16.07;;;7.00;;
52796;SDS011;38666;43.348;12.584;2022-10-16T18:41:07;12.95;;;6.78;;
52796;SDS011;38666;43.348;12.584;2022-10-16T18:43:34;15.60;;;6.30;;
52796;SDS011;38666;43.348;12.584;2022-10-16T18:46:02;16.40;;;5.90;;
52796;SDS011;38666;43.348;12.584;2022-10-16T18:48:30;14.23;;;6.07;;
